createdAt,value
2022-10-23T00:02:32.313Z,2.20
2022-10-23T00:07:40.344Z,2.33
2022-10-23T00:12:49.514Z,1.88
2022-10-23T00:17:54.772Z,2.00
2022-10-23T00:23:00.308Z,2.33
2022-10-23T00:28:11.008Z,2.20
2022-10-23T00:33:16.263Z,2.57
2022-10-23T00:38:22.021Z,2.47
2022-10-23T00:43:32.508Z,2.13
2022-10-23T00:48:38.264Z,2.60
2022-10-23T00:53:44.687Z,2.00
2022-10-23T00:58:52.876Z,2.17
2022-10-23T01:03:58.922Z,1.93
2022-10-23T01:09:12.252Z,1.90
2022-10-23T01:14:34.960Z,2.23
2022-10-23T01:19:59.107Z,2.20
2022-10-23T01:25:10.968Z,1.85
2022-10-23T01:30:20.354Z,2.00
2022-10-23T01:35:34.722Z,1.83
2022-10-23T01:40:48.868Z,1.90
2022-10-23T01:46:02.214Z,1.80
2022-10-23T01:51:12.732Z,1.70
2022-10-23T01:56:23.151Z,1.42
2022-10-23T02:01:33.209Z,2.00
2022-10-23T02:06:39.172Z,1.70
2022-10-23T02:11:55.314Z,2.20
2022-10-23T02:17:11.972Z,2.13
2022-10-23T02:22:23.202Z,1.87
2022-10-23T02:27:35.239Z,1.85
2022-10-23T02:32:47.984Z,2.17
2022-10-23T02:38:01.933Z,1.70
2022-10-23T02:43:17.310Z,1.90
2022-10-23T02:48:36.642Z,2.20
2022-10-23T02:59:13.605Z,1.98
2022-10-23T03:04:22.678Z,2.13
2022-10-23T03:09:30.188Z,1.70
2022-10-23T03:14:38.562Z,1.70
2022-10-23T03:19:47.289Z,1.50
2022-10-23T03:24:53.290Z,1.73
2022-10-23T03:30:00.401Z,1.90
2022-10-23T03:35:11.825Z,1.67
2022-10-23T03:40:17.400Z,1.98
2022-10-23T03:45:23.384Z,1.67
2022-10-23T03:50:31.249Z,1.30
2022-10-23T03:55:39.555Z,1.70
2022-10-23T04:00:45.303Z,1.90
2022-10-23T04:05:54.064Z,1.90
2022-10-23T04:11:02.743Z,1.73
2022-10-23T04:16:21.727Z,2.10
2022-10-23T04:21:29.978Z,1.92
2022-10-23T04:26:35.462Z,1.70
2022-10-23T04:31:41.281Z,2.07
2022-10-23T04:36:49.835Z,1.80
2022-10-23T04:41:56.860Z,1.87
2022-10-23T04:47:04.039Z,2.33
2022-10-23T04:52:14.765Z,1.90
2022-10-23T04:57:43.435Z,1.70
2022-10-23T05:02:51.148Z,1.60
2022-10-23T05:08:01.216Z,1.48
2022-10-23T05:13:29.560Z,1.50
2022-10-23T05:18:38.624Z,1.73
2022-10-23T05:23:47.633Z,1.77
2022-10-23T05:28:53.104Z,1.60
2022-10-23T05:33:59.388Z,1.70
2022-10-23T05:39:08.107Z,1.52
2022-10-23T05:44:14.696Z,1.80
2022-10-23T05:49:35.528Z,1.58
2022-10-23T05:55:02.127Z,1.60
2022-10-23T06:00:31.551Z,1.60
2022-10-23T06:05:57.125Z,1.60
2022-10-23T06:11:18.093Z,1.83
2022-10-23T06:16:36.315Z,1.50
2022-10-23T06:21:44.271Z,1.55
2022-10-23T06:26:55.395Z,1.40
2022-10-23T06:32:13.145Z,1.77
2022-10-23T06:37:23.150Z,2.00
2022-10-23T06:42:58.715Z,1.50
2022-10-23T06:48:09.833Z,1.70
2022-10-23T06:53:39.153Z,1.73
2022-10-23T06:58:56.964Z,1.70
2022-10-23T07:04:02.920Z,1.33
2022-10-23T07:09:11.930Z,1.40
2022-10-23T07:14:49.329Z,1.63
2022-10-23T07:19:55.279Z,1.80
2022-10-23T07:25:08.562Z,1.80
2022-10-23T07:30:20.124Z,1.87
2022-10-23T07:35:29.931Z,1.83
2022-10-23T07:40:43.292Z,1.67
2022-10-23T07:45:53.618Z,1.70
2022-10-23T07:51:10.859Z,1.55
2022-10-23T07:56:26.470Z,2.00
2022-10-23T08:01:55.714Z,1.60
2022-10-23T08:07:06.503Z,1.50
2022-10-23T08:12:18.451Z,1.50
2022-10-23T08:17:28.371Z,1.60
2022-10-23T08:22:41.977Z,1.42
2022-10-23T08:27:52.253Z,1.67
2022-10-23T08:33:00.813Z,1.45
2022-10-23T08:38:07.058Z,1.00
2022-10-23T08:43:23.428Z,1.10
2022-10-23T08:48:53.791Z,1.42
2022-10-23T08:54:21.109Z,1.65
2022-10-23T08:59:33.407Z,1.20
2022-10-23T09:04:43.118Z,1.23
2022-10-23T09:10:03.356Z,1.60
2022-10-23T09:15:19.290Z,1.30
2022-10-23T09:20:30.464Z,1.20
2022-10-23T09:25:41.225Z,1.10
2022-10-23T09:30:47.643Z,1.30
2022-10-23T09:36:03.847Z,1.25
2022-10-23T09:41:15.756Z,1.75
2022-10-23T09:46:21.377Z,1.33
2022-10-23T09:51:30.301Z,2.40
2022-10-23T09:56:38.641Z,1.30
2022-10-23T10:01:51.860Z,1.93
2022-10-23T10:07:27.544Z,1.27
2022-10-23T10:12:41.836Z,1.13
2022-10-23T10:17:56.086Z,1.40
2022-10-23T10:23:09.721Z,1.20
2022-10-23T10:28:33.686Z,1.42
2022-10-23T10:33:52.228Z,1.13
2022-10-23T10:39:04.609Z,1.27
2022-10-23T10:44:36.002Z,1.20
2022-10-23T10:49:50.222Z,1.30
2022-10-23T10:55:30.563Z,1.25
2022-10-23T11:00:38.871Z,1.30
2022-10-23T11:05:47.389Z,1.50
2022-10-23T11:11:06.265Z,1.23
2022-10-23T11:16:15.745Z,1.30
2022-10-23T11:21:30.111Z,1.03
2022-10-23T11:26:48.212Z,1.20
2022-10-23T11:32:03.313Z,2.40
2022-10-23T11:37:11.907Z,1.27
2022-10-23T11:42:34.081Z,1.70
2022-10-23T11:47:44.521Z,1.23
2022-10-23T11:53:13.731Z,1.30
2022-10-23T11:58:43.659Z,1.53
2022-10-23T12:03:55.435Z,1.33
2022-10-23T12:09:05.685Z,1.17
2022-10-23T12:14:35.716Z,1.50
2022-10-23T12:19:53.583Z,1.27
2022-10-23T12:25:06.575Z,1.10
2022-10-23T12:30:34.669Z,2.63
2022-10-23T12:36:14.479Z,1.40
2022-10-23T12:41:27.466Z,1.40
2022-10-23T12:46:38.407Z,1.05
2022-10-23T12:51:45.593Z,1.87
2022-10-23T12:56:54.160Z,1.85
2022-10-23T13:02:06.027Z,1.63
2022-10-23T13:07:13.106Z,1.77
2022-10-23T13:12:28.659Z,2.53
2022-10-23T13:17:46.677Z,1.40
2022-10-23T13:22:59.259Z,1.60
2022-10-23T13:28:17.814Z,1.52
2022-10-23T13:33:35.889Z,1.50
2022-10-23T13:38:43.204Z,1.80
2022-10-23T13:43:54.501Z,1.65
2022-10-23T13:49:09.751Z,1.50
2022-10-23T13:54:18.322Z,1.60
2022-10-23T13:59:25.188Z,1.75
2022-10-23T14:04:34.095Z,1.40
2022-10-23T14:09:41.336Z,1.47
2022-10-23T14:14:47.145Z,2.15
2022-10-23T14:19:56.072Z,2.42
2022-10-23T14:25:02.665Z,2.30
2022-10-23T14:30:09.296Z,2.00
2022-10-23T14:35:17.765Z,2.08
2022-10-23T14:40:23.899Z,1.60
2022-10-23T14:45:30.126Z,2.08
2022-10-23T14:50:39.818Z,2.00
2022-10-23T14:55:45.262Z,1.90
2022-10-23T15:01:00.544Z,1.57
2022-10-23T15:06:16.009Z,2.80
2022-10-23T15:11:24.322Z,2.85
2022-10-23T15:16:30.121Z,2.20
2022-10-23T15:21:39.144Z,1.95
2022-10-23T15:26:45.342Z,2.83
2022-10-23T15:31:55.361Z,2.67
2022-10-23T15:37:03.678Z,2.53
2022-10-23T15:42:10.057Z,2.65
2022-10-23T15:47:15.840Z,2.33
2022-10-23T15:52:24.548Z,2.88
2022-10-23T15:57:31.325Z,5.10
2022-10-23T16:02:37.775Z,4.90
2022-10-23T16:07:46.332Z,2.58
2022-10-23T16:12:55.195Z,3.33
2022-10-23T16:18:00.691Z,2.80
2022-10-23T16:23:09.308Z,2.63
2022-10-23T16:28:18.168Z,2.63
2022-10-23T16:33:24.187Z,2.90
2022-10-23T16:38:32.329Z,3.38
2022-10-23T16:43:39.544Z,4.07
2022-10-23T16:49:06.690Z,3.87
2022-10-23T16:54:18.093Z,4.13
2022-10-23T16:59:29.686Z,3.30
2022-10-23T17:04:39.966Z,2.50
2022-10-23T17:09:50.639Z,2.80
2022-10-23T17:14:56.118Z,2.63
2022-10-23T17:20:02.954Z,2.47
2022-10-23T17:25:13.089Z,2.55
2022-10-23T17:30:18.894Z,3.30
2022-10-23T17:35:24.833Z,3.20
2022-10-23T17:40:33.753Z,3.15
2022-10-23T17:45:40.468Z,2.97
2022-10-23T17:50:46.182Z,3.10
2022-10-23T17:55:55.098Z,5.10
2022-10-23T18:01:01.677Z,3.30
2022-10-23T18:06:10.536Z,3.90
2022-10-23T18:11:23.876Z,3.90
2022-10-23T18:16:32.437Z,4.20
2022-10-23T18:21:40.307Z,3.07
2022-10-23T18:26:55.578Z,3.50
2022-10-23T18:32:07.370Z,3.20
2022-10-23T18:37:15.527Z,3.77
2022-10-23T18:42:23.779Z,3.67
2022-10-23T18:47:31.977Z,2.93
2022-10-23T18:52:46.313Z,2.40
2022-10-23T18:57:55.146Z,3.95
2022-10-23T19:03:00.663Z,5.03
2022-10-23T19:08:11.270Z,2.80
2022-10-23T19:13:23.080Z,7.95
2022-10-23T19:18:32.461Z,3.50
2022-10-23T19:23:44.659Z,3.10
2022-10-23T19:28:54.835Z,2.45
2022-10-23T19:34:03.742Z,2.30
2022-10-23T19:39:14.182Z,1.90
2022-10-23T19:44:28.030Z,2.30
2022-10-23T19:49:39.353Z,2.10
2022-10-23T19:54:53.447Z,2.30
2022-10-23T20:00:01.517Z,2.88
2022-10-23T20:05:16.121Z,2.00
2022-10-23T20:10:22.357Z,1.83
2022-10-23T20:15:31.692Z,2.22
2022-10-23T20:20:44.992Z,2.23
2022-10-23T20:25:50.701Z,1.80
2022-10-23T20:31:00.931Z,1.83
2022-10-23T20:36:07.326Z,2.00
2022-10-23T20:41:16.041Z,2.17
2022-10-23T20:46:25.896Z,1.85
2022-10-23T20:51:31.783Z,1.73
2022-10-23T20:56:40.789Z,2.00
2022-10-23T21:01:54.310Z,2.00
2022-10-23T21:07:10.457Z,2.20
2022-10-23T21:12:19.863Z,1.67
2022-10-23T21:17:36.065Z,2.28
2022-10-23T21:22:47.025Z,2.30
2022-10-23T21:27:52.860Z,2.13
2022-10-23T21:33:04.060Z,1.83
2022-10-23T21:38:09.394Z,2.38
2022-10-23T21:43:17.523Z,2.20
2022-10-23T21:48:25.430Z,2.47
2022-10-23T21:53:32.136Z,2.30
2022-10-23T21:58:37.430Z,2.10
2022-10-23T22:03:53.964Z,2.25
2022-10-23T22:09:01.156Z,2.40
2022-10-23T22:14:07.359Z,2.10
2022-10-23T22:19:17.998Z,2.15
2022-10-23T22:24:28.301Z,2.93
2022-10-23T22:29:34.406Z,2.60
2022-10-23T22:34:59.741Z,2.58
2022-10-23T22:40:07.772Z,3.03
2022-10-23T22:45:14.519Z,3.03
2022-10-23T22:50:22.639Z,2.70
2022-10-23T22:55:28.549Z,2.53
2022-10-23T23:00:41.385Z,2.50
2022-10-23T23:05:51.490Z,2.80
2022-10-23T23:10:57.644Z,2.67
2022-10-23T23:16:04.043Z,2.23
2022-10-23T23:21:14.869Z,2.72
2022-10-23T23:26:22.031Z,2.67
2022-10-23T23:31:29.930Z,2.47
2022-10-23T23:36:37.853Z,3.00
2022-10-23T23:41:43.696Z,2.90
2022-10-23T23:46:52.602Z,2.60
2022-10-23T23:52:02.914Z,2.55
2022-10-23T23:57:16.021Z,2.40
